Главная страница
METAR-TAF:

METAR-TAF

Аэропорты :

Хальмстад, Швеция

широта: 56-41N, долгота: 012-50E, высота над уровнем моря: 30 м

Текущие метеонаблюдения

Эта сводка был подготовлена 38 минут назад, в 20:50 UTC
Ветер 5 Узел от западный-юго-западный
Температура 12°C
Влажность 76%
Давление 1013 hPa
Видимость 10 км и более

METAR: ESMT 132050Z AUTO 24005KT 9999 FEW050/// BKN098/// 12/08 Q1013

Время: 23:28 (21:28 UTC)

Прогноз

Эта сводка был подготовлена 7 часа и 27 минут назад, в 14:01 UTC
Прогноз действительный с 13-го 15 UTC до 13-го 19 UTC
Ветер 12 Узел от юго-западный
Видимость 10 км и более
Отдельные облака на высоте 3500 фута
временами
С 13-го 15 UTC до 13-го 19 UTC
Отдельные облака на высоте 2000 фута, Кучево-дождевые.

TAF: ESMT 131401Z 1315/1319 23012KT 9999 SCT035 TEMPO 1315/1319 SCT020CB

Метеонаблюдения и прогнозы для более 4000 аэропортов (сводки METAR и TAF).

Имеющиеся станции представлены на карте желтыми и красными точками.

Чтобы увидеть название станции, наведите на нее мышь.

Затем щелкните, чтобы увидеть метеонаблюдения и метеопрогнозы.

Управление картой: чтобы увеличить масштаб, щелкните зеленые кнопки с черным крестиком; чтобы уменьшить масштаб, щелкните зеленую кнопку с тире; для просмотра соседних карт щелкайте зеленые стрелки.


METAR-TAF: